Time;durP1;ratioP1;P1;durP2;ratioP2;P2;SDS_P1;SDS_P2;PMS_P1;PMS_P2;Temp;Humidity;BMP_temperature;BMP_pressure;BME280_temperature;BME280_humidity;BME280_pressure;Samples;Min_cycle;Max_cycle;Signal;HPM_P1;HPM_P2
2023/10/27 00:00:12;;;;;;;;;;;;;;;19.98;65.69;96969.34;2088637;28;20173;-68
2023/10/27 00:01:12;;;;;;;;;;;;;;;20.00;65.44;96961.00;2090173;28;19978;-68
2023/10/27 00:02:14;;;;;;;;;;;;;;;20.00;65.78;96955.63;2089032;28;19928;-68
2023/10/27 00:03:16;;;;;;;;;;;;;;;20.00;65.54;96963.69;2087870;28;19932;-67
2023/10/27 00:04:17;;;;;;;;;;;;;;;20.00;65.42;96952.94;2088614;28;20011;-67
2023/10/27 00:05:18;;;;;;;;;;;;;;;19.99;65.45;96944.06;2091287;28;19932;-68
2023/10/27 00:06:19;;;;;;;;;;;;;;;20.00;65.52;96944.88;2087311;28;19932;-68
2023/10/27 00:07:20;;;;;;;;;;;;;;;19.98;65.69;96944.31;2086200;28;19939;-67
2023/10/27 00:08:21;;;;;;;;;;;;;;;19.99;65.61;96927.09;2090728;28;19936;-67
2023/10/27 00:09:22;;;;;;;;;;;;;;;19.98;65.60;96917.41;2089165;28;19952;-68
2023/10/27 00:10:23;;;;;;;;;;;;;;;19.99;65.80;96929.78;2088902;28;19925;-68
2023/10/27 00:11:25;;;;;;;;;;;;;;;19.99;65.81;96929.78;2085937;28;20007;-68
2023/10/27 00:12:26;;;;;;;;;;;;;;;19.99;65.80;96927.09;2088836;28;19936;-68
2023/10/27 00:13:27;;;;;;;;;;;;;;;20.00;65.84;96920.66;2082113;28;19933;-67
2023/10/27 00:14:28;;;;;;;;;;;;;;;20.00;65.75;96923.34;2087486;28;20015;-67
2023/10/27 00:15:29;;;;;;;;;;;;;;;19.99;65.56;96929.78;2088317;28;19962;-67
2023/10/27 00:16:30;;;;;;;;;;;;;;;19.99;65.54;96921.72;2087605;28;19975;-67
2023/10/27 00:17:31;;;;;;;;;;;;;;;20.00;65.96;96934.09;2088046;28;20303;-68
2023/10/27 00:18:34;;;;;;;;;;;;;;;20.00;65.91;96942.19;2085203;28;20015;-68
2023/10/27 00:19:34;;;;;;;;;;;;;;;20.00;65.84;96942.19;2086225;28;19942;-67
2023/10/27 00:20:35;;;;;;;;;;;;;;;19.99;65.69;96927.09;2087205;28;22328;-67
2023/10/27 00:21:36;;;;;;;;;;;;;;;19.99;65.70;96935.97;2086077;28;20305;-68
2023/10/27 00:22:37;;;;;;;;;;;;;;;19.99;65.86;96929.78;2086834;28;20450;-67
2023/10/27 00:23:39;;;;;;;;;;;;;;;19.98;65.85;96928.19;2085018;28;19951;-68
2023/10/27 00:24:39;;;;;;;;;;;;;;;19.99;65.61;96927.91;2085042;28;19924;-67
2023/10/27 00:25:40;;;;;;;;;;;;;;;20.00;65.66;96907.19;2086920;28;19924;-68
2023/10/27 00:26:41;;;;;;;;;;;;;;;19.99;65.86;96911.75;2085869;28;19963;-68
2023/10/27 00:27:42;;;;;;;;;;;;;;;20.00;65.67;96912.56;2082414;28;19933;-68
2023/10/27 00:28:45;;;;;;;;;;;;;;;20.00;65.63;96912.56;2091787;28;20016;-67
2023/10/27 00:29:46;;;;;;;;;;;;;;;20.01;65.48;96915.03;2090109;28;20015;-68
2023/10/27 00:30:47;;;;;;;;;;;;;;;20.01;65.66;96901.56;2088879;28;19931;-68
2023/10/27 00:31:48;;;;;;;;;;;;;;;20.00;65.58;96908.03;2089957;28;19928;-67
2023/10/27 00:32:49;;;;;;;;;;;;;;;20.00;65.93;96896.44;2086941;28;19925;-68
2023/10/27 00:33:51;;;;;;;;;;;;;;;20.00;65.66;96896.44;2081074;28;19959;-67
2023/10/27 00:34:53;;;;;;;;;;;;;;;20.00;65.67;96901.81;2087258;28;19932;-67
2023/10/27 00:35:54;;;;;;;;;;;;;;;20.00;65.59;96885.66;2088029;28;19933;-67
2023/10/27 00:36:55;;;;;;;;;;;;;;;20.00;65.92;96891.88;2085368;28;19964;-68
2023/10/27 00:37:57;;;;;;;;;;;;;;;20.00;65.76;96893.72;2088484;28;21261;-68
2023/10/27 00:38:58;;;;;;;;;;;;;;;20.00;66.06;96891.03;2089142;28;19978;-68
2023/10/27 00:39:59;;;;;;;;;;;;;;;20.00;65.85;96891.03;2090186;28;19956;-68
2023/10/27 00:41:00;;;;;;;;;;;;;;;20.02;65.81;96883.53;2084231;28;20603;-68
2023/10/27 00:42:02;;;;;;;;;;;;;;;20.00;65.76;96886.50;2086915;28;19924;-67
2023/10/27 00:43:03;;;;;;;;;;;;;;;20.00;65.60;96874.91;2087220;28;19924;-68
2023/10/27 00:44:05;;;;;;;;;;;;;;;20.00;65.99;96891.88;2091552;28;20303;-67
2023/10/27 00:45:06;;;;;;;;;;;;;;;20.02;65.75;96888.91;2086025;28;20395;-67
2023/10/27 00:46:07;;;;;;;;;;;;;;;20.01;66.06;96881.94;2089772;28;20027;-67
2023/10/27 00:47:08;;;;;;;;;;;;;;;20.00;66.18;96874.91;2088496;28;20402;-68
2023/10/27 00:48:09;;;;;;;;;;;;;;;19.99;65.86;96871.41;2087122;28;19983;-67
2023/10/27 00:49:12;;;;;;;;;;;;;;;20.00;65.83;96864.13;2085374;28;19970;-69
2023/10/27 00:50:13;;;;;;;;;;;;;;;20.01;66.00;96865.78;2091583;28;20292;-67
2023/10/27 00:51:15;;;;;;;;;;;;;;;19.99;65.81;96860.63;2082789;28;19939;-68
2023/10/27 00:52:18;;;;;;;;;;;;;;;20.01;65.91;96865.78;2078551;28;20615;-68
2023/10/27 00:53:20;;;;;;;;;;;;;;;20.00;65.82;96867.66;2084600;28;19933;-67
2023/10/27 00:54:21;;;;;;;;;;;;;;;20.01;65.77;96871.16;2085324;28;19929;-67
2023/10/27 00:55:22;;;;;;;;;;;;;;;20.01;66.02;96866.59;2086334;28;20289;-67
2023/10/27 00:56:24;;;;;;;;;;;;;;;20.02;65.60;96867.38;2087301;28;19936;-68
2023/10/27 00:57:26;;;;;;;;;;;;;;;20.02;65.98;96853.94;2088151;28;20403;-68
2023/10/27 00:58:27;;;;;;;;;;;;;;;20.01;65.79;96846.94;2082762;28;19933;-68
2023/10/27 00:59:28;;;;;;;;;;;;;;;20.00;65.74;96843.44;2088698;28;20023;-68
2023/10/27 01:00:29;;;;;;;;;;;;;;;20.01;65.81;96855.00;2088862;28;19929;-68
2023/10/27 01:01:31;;;;;;;;;;;;;;;20.01;66.02;96846.94;2081317;28;20695;-68
2023/10/27 01:02:32;;;;;;;;;;;;;;;20.01;66.08;96842.38;2087472;28;19931;-68
2023/10/27 01:03:33;;;;;;;;;;;;;;;20.00;66.10;96831.84;2088770;28;19925;-68
2023/10/27 01:04:36;;;;;;;;;;;;;;;20.00;66.00;96840.75;2089040;28;20400;-67
2023/10/27 01:05:37;;;;;;;;;;;;;;;20.02;66.04;96835.09;2090847;28;20001;-68
2023/10/27 01:06:39;;;;;;;;;;;;;;;20.01;66.00;96836.97;2091852;28;19933;-67
2023/10/27 01:07:40;;;;;;;;;;;;;;;20.03;65.81;96842.09;2089139;28;19928;-67
2023/10/27 01:08:42;;;;;;;;;;;;;;;20.03;65.98;96842.09;2090643;28;19939;-68
2023/10/27 01:09:42;;;;;;;;;;;;;;;20.01;66.01;96830.78;2087890;28;19931;-67
2023/10/27 01:10:44;;;;;;;;;;;;;;;20.00;66.19;96832.69;2090577;28;20074;-67
2023/10/27 01:11:45;;;;;;;;;;;;;;;20.01;66.19;96830.78;2081950;28;20308;-68
2023/10/27 01:12:48;;;;;;;;;;;;;;;20.01;66.06;96817.34;2085248;28;19930;-67
2023/10/27 01:13:49;;;;;;;;;;;;;;;20.01;65.75;96811.97;2090251;28;20023;-67
2023/10/27 01:14:51;;;;;;;;;;;;;;;20.02;65.94;96816.25;2088424;28;19979;-67
2023/10/27 01:15:51;;;;;;;;;;;;;;;20.03;65.91;96815.19;2088668;28;19924;-68
2023/10/27 01:16:53;;;;;;;;;;;;;;;20.01;65.85;96811.97;2083850;28;19924;-68
2023/10/27 01:17:54;;;;;;;;;;;;;;;20.02;65.90;96821.66;2088145;28;19950;-68
2023/10/27 01:18:56;;;;;;;;;;;;;;;20.03;66.12;96812.50;2091340;28;19924;-67
2023/10/27 01:19:58;;;;;;;;;;;;;;;20.02;65.77;96802.81;2087394;28;19932;-68
2023/10/27 01:21:00;;;;;;;;;;;;;;;20.03;65.95;96801.72;2091891;28;19950;-67
2023/10/27 01:22:00;;;;;;;;;;;;;;;20.02;65.90;96798.22;2088361;28;20051;-68
2023/10/27 01:23:04;;;;;;;;;;;;;;;20.02;66.16;96792.03;2091189;28;19935;-67
2023/10/27 01:24:05;;;;;;;;;;;;;;;20.03;65.87;96789.09;2087322;28;20027;-67
2023/10/27 01:25:07;;;;;;;;;;;;;;;20.03;66.03;96786.41;2087808;28;19925;-67
2023/10/27 01:26:08;;;;;;;;;;;;;;;20.02;65.95;96775.91;2087028;28;20015;-67
2023/10/27 01:27:09;;;;;;;;;;;;;;;20.02;66.06;96775.91;2086227;28;20383;-68
2023/10/27 01:28:10;;;;;;;;;;;;;;;20.01;65.91;96769.72;2088061;28;19932;-67
2023/10/27 01:29:12;;;;;;;;;;;;;;;20.02;66.24;96765.13;2085353;28;19925;-67
2023/10/27 01:30:12;;;;;;;;;;;;;;;20.01;65.89;96768.91;2087807;28;19925;-68
2023/10/27 01:31:15;;;;;;;;;;;;;;;20.01;65.93;96763.53;2084265;28;20331;-67
2023/10/27 01:32:15;;;;;;;;;;;;;;;20.03;65.99;96767.56;2090461;28;20403;-67
2023/10/27 01:33:17;;;;;;;;;;;;;;;20.03;66.10;96764.06;2090385;28;19971;-68
2023/10/27 01:34:18;;;;;;;;;;;;;;;20.03;65.88;96764.88;2087230;28;19924;-68
2023/10/27 01:35:19;;;;;;;;;;;;;;;20.01;66.03;96763.53;2086298;28;19964;-68
2023/10/27 01:36:20;;;;;;;;;;;;;;;20.02;66.11;96765.94;2091875;28;19928;-68
2023/10/27 01:37:21;;;;;;;;;;;;;;;20.01;66.16;96767.00;2087373;28;20399;-68
2023/10/27 01:38:23;;;;;;;;;;;;;;;20.03;66.12;96764.88;2084730;28;19935;-67
2023/10/27 01:39:25;;;;;;;;;;;;;;;20.03;66.31;96772.13;2087542;28;19964;-68
2023/10/27 01:40:25;;;;;;;;;;;;;;;20.03;66.05;96764.88;2087647;28;19944;-67
2023/10/27 01:41:26;;;;;;;;;;;;;;;20.02;65.98;96773.19;2091520;28;20596;-68
2023/10/27 01:42:29;;;;;;;;;;;;;;;20.01;66.26;96767.00;2088587;28;20151;-67
2023/10/27 01:43:29;;;;;;;;;;;;;;;20.02;66.05;96763.25;2089094;28;19935;-67
2023/10/27 01:44:31;;;;;;;;;;;;;;;20.02;66.09;96770.50;2089784;28;19929;-68
2023/10/27 01:45:31;;;;;;;;;;;;;;;20.03;65.98;96777.50;2087408;28;19932;-68
2023/10/27 01:46:33;;;;;;;;;;;;;;;20.02;66.16;96770.50;2088622;28;20011;-68
2023/10/27 01:47:34;;;;;;;;;;;;;;;20.03;66.16;96767.56;2087587;28;19929;-68
2023/10/27 01:48:36;;;;;;;;;;;;;;;20.03;66.00;96758.66;2087240;28;19944;-68
2023/10/27 01:49:36;;;;;;;;;;;;;;;20.03;66.23;96764.88;2080448;27;20390;-68
2023/10/27 01:50:38;;;;;;;;;;;;;;;20.05;66.24;96759.22;2086600;28;19976;-67
2023/10/27 01:51:39;;;;;;;;;;;;;;;20.03;66.05;96764.06;2080734;28;20391;-67
2023/10/27 01:52:41;;;;;;;;;;;;;;;20.04;65.90;96758.44;2088761;28;20020;-67
2023/10/27 01:53:43;;;;;;;;;;;;;;;20.04;65.97;96757.63;2080637;28;19991;-68
2023/10/27 01:54:44;;;;;;;;;;;;;;;20.03;66.22;96758.66;2086188;28;20000;-68
2023/10/27 01:55:45;;;;;;;;;;;;;;;20.02;66.00;96755.19;2087964;28;19936;-68
2023/10/27 01:56:46;;;;;;;;;;;;;;;20.03;65.92;96753.28;2088470;28;20559;-67
2023/10/27 01:57:47;;;;;;;;;;;;;;;20.03;66.31;96755.97;2088240;28;20311;-68
2023/10/27 01:58:49;;;;;;;;;;;;;;;20.04;66.27;96752.25;2089902;28;20019;-67
2023/10/27 01:59:49;;;;;;;;;;;;;;;20.02;66.24;96752.47;2083455;28;19931;-68
2023/10/27 02:00:51;;;;;;;;;;;;;;;20.03;66.21;96761.34;2089151;28;21525;-67
2023/10/27 02:01:51;;;;;;;;;;;;;;;20.04;66.09;96746.84;2088889;28;19936;-67
2023/10/27 02:02:52;;;;;;;;;;;;;;;20.03;66.25;96737.13;2089722;28;20280;-67
2023/10/27 02:03:53;;;;;;;;;;;;;;;20.03;66.10;96734.44;2090020;28;19951;-68
2023/10/27 02:04:54;;;;;;;;;;;;;;;20.04;65.94;96730.72;2092381;28;19970;-67
2023/10/27 02:05:55;;;;;;;;;;;;;;;20.03;65.89;96729.91;2086421;28;20442;-67
2023/10/27 02:06:56;;;;;;;;;;;;;;;20.03;65.91;96729.91;2091768;28;19928;-67
2023/10/27 02:08:00;;;;;;;;;;;;;;;20.03;66.01;96729.06;2086629;28;20330;-67
2023/10/27 02:09:02;;;;;;;;;;;;;;;20.03;66.01;96729.91;2088305;28;20327;-68
2023/10/27 02:10:03;;;;;;;;;;;;;;;20.01;65.93;96726.66;2085086;28;19925;-67
2023/10/27 02:11:05;;;;;;;;;;;;;;;20.04;66.03;96728.81;2082472;28;20311;-64
2023/10/27 02:12:09;;;;;;;;;;;;;;;20.03;65.92;96719.13;2090224;28;20430;-66
2023/10/27 02:13:10;;;;;;;;;;;;;;;20.04;66.22;96725.31;2079443;28;19964;-67
2023/10/27 02:14:12;;;;;;;;;;;;;;;20.04;65.94;96717.25;2085448;28;19932;-67
2023/10/27 02:15:12;;;;;;;;;;;;;;;20.04;66.26;96720.75;2087987;28;20736;-68
2023/10/27 02:16:14;;;;;;;;;;;;;;;20.05;66.00;96721.56;2088355;28;19960;-68
2023/10/27 02:17:14;;;;;;;;;;;;;;;20.04;66.06;96734.22;2082564;28;21244;-67
2023/10/27 02:18:16;;;;;;;;;;;;;;;20.05;66.26;96726.94;2086472;28;19925;-67
2023/10/27 02:19:17;;;;;;;;;;;;;;;20.04;66.12;96719.94;2088633;28;20606;-68
2023/10/27 02:20:18;;;;;;;;;;;;;;;20.04;66.07;96719.94;2088660;28;19929;-67
2023/10/27 02:21:19;;;;;;;;;;;;;;;20.03;66.16;96723.69;2086619;28;19940;-67
2023/10/27 02:22:20;;;;;;;;;;;;;;;20.03;66.27;96718.31;2086852;28;20353;-68
2023/10/27 02:23:21;;;;;;;;;;;;;;;20.03;66.06;96726.38;2087344;28;20438;-68
2023/10/27 02:24:24;;;;;;;;;;;;;;;20.05;66.22;96729.63;2084288;28;20015;-67
2023/10/27 02:25:25;;;;;;;;;;;;;;;20.04;65.98;96725.31;2085949;28;20304;-67
2023/10/27 02:26:25;;;;;;;;;;;;;;;20.03;66.17;96729.91;2085691;28;20015;-67
2023/10/27 02:27:27;;;;;;;;;;;;;;;20.05;66.23;96721.56;2085828;28;20439;-68
2023/10/27 02:28:27;;;;;;;;;;;;;;;20.02;66.26;96716.69;2085841;28;19932;-67
2023/10/27 02:29:29;;;;;;;;;;;;;;;20.04;66.17;96722.63;2085991;28;20003;-68
2023/10/27 02:30:29;;;;;;;;;;;;;;;20.03;66.02;96721.00;2087524;28;19956;-67
2023/10/27 02:31:31;;;;;;;;;;;;;;;20.03;66.04;96727.22;2087475;28;20020;-68
2023/10/27 02:32:32;;;;;;;;;;;;;;;20.03;66.13;96729.91;2075629;28;19933;-67
2023/10/27 02:33:33;;;;;;;;;;;;;;;20.02;66.15;96722.06;2090474;28;19932;-67
2023/10/27 02:34:34;;;;;;;;;;;;;;;20.04;66.34;96714.56;2084243;28;19939;-67
2023/10/27 02:35:35;;;;;;;;;;;;;;;20.05;66.22;96700.03;2086297;28;19964;-68
2023/10/27 02:36:37;;;;;;;;;;;;;;;20.04;65.88;96707.28;2083128;28;19932;-67
2023/10/27 02:37:37;;;;;;;;;;;;;;;20.03;66.05;96712.91;2087190;28;19936;-67
2023/10/27 02:38:39;;;;;;;;;;;;;;;20.04;65.97;96719.94;2086140;28;19956;-67
2023/10/27 02:39:41;;;;;;;;;;;;;;;20.03;66.15;96713.75;2089957;28;20398;-68
2023/10/27 02:40:41;;;;;;;;;;;;;;;20.04;65.90;96714.56;2086552;28;19932;-68
2023/10/27 02:41:43;;;;;;;;;;;;;;;20.05;65.95;96708.09;2088415;28;21365;-68
2023/10/27 02:42:44;;;;;;;;;;;;;;;20.05;66.05;96700.03;2087672;28;19935;-67
2023/10/27 02:43:45;;;;;;;;;;;;;;;20.05;65.92;96700.03;2086731;28;19935;-68
2023/10/27 02:44:46;;;;;;;;;;;;;;;20.04;66.15;96693.03;2087791;28;19967;-68
2023/10/27 02:45:48;;;;;;;;;;;;;;;20.04;66.21;96696.53;2086188;28;19967;-67
2023/10/27 02:46:48;;;;;;;;;;;;;;;20.05;66.00;96694.66;2084568;28;19981;-67
2023/10/27 02:47:49;;;;;;;;;;;;;;;20.04;65.99;96698.41;2086668;28;19977;-68
2023/10/27 02:48:51;;;;;;;;;;;;;;;20.05;65.93;96695.44;2085765;28;20406;-68
2023/10/27 02:49:52;;;;;;;;;;;;;;;20.06;66.16;96688.22;2084599;28;19944;-67
2023/10/27 02:50:53;;;;;;;;;;;;;;;20.05;65.92;96690.06;2079557;28;19964;-68
2023/10/27 02:51:55;;;;;;;;;;;;;;;20.05;66.25;96678.50;2085035;28;19978;-67
2023/10/27 02:52:55;;;;;;;;;;;;;;;20.05;66.19;96670.44;2086394;28;19924;-68
2023/10/27 02:53:56;;;;;;;;;;;;;;;20.05;66.18;96673.91;2082486;28;19999;-67
2023/10/27 02:54:59;;;;;;;;;;;;;;;20.04;65.91;96671.50;2082228;27;20043;-67
2023/10/27 02:56:04;;;;;;;;;;;;;;;20.05;66.15;96673.13;2082791;28;20809;-67
2023/10/27 02:57:05;;;;;;;;;;;;;;;20.06;66.23;96675.56;2082000;28;19925;-65
2023/10/27 02:58:06;;;;;;;;;;;;;;;20.07;66.13;96665.59;2087180;28;19932;-66
2023/10/27 02:59:09;;;;;;;;;;;;;;;20.06;65.95;96655.91;2081939;28;20030;-68
2023/10/27 03:00:10;;;;;;;;;;;;;;;20.05;66.05;96651.59;2085337;28;19925;-68
2023/10/27 03:01:14;;;;;;;;;;;;;;;20.04;66.15;96652.66;2081965;28;19932;-68
2023/10/27 03:02:14;;;;;;;;;;;;;;;20.04;66.04;96649.97;2084381;28;19932;-68
2023/10/27 03:03:16;;;;;;;;;;;;;;;20.04;65.98;96649.97;2085709;28;19924;-67
2023/10/27 03:04:16;;;;;;;;;;;;;;;20.05;65.99;96656.97;2086492;28;20665;-67
2023/10/27 03:05:18;;;;;;;;;;;;;;;20.05;66.24;96662.34;2090917;28;19964;-68
2023/10/27 03:06:19;;;;;;;;;;;;;;;20.04;66.16;96658.84;2088471;28;19932;-68
2023/10/27 03:07:19;;;;;;;;;;;;;;;20.05;66.04;96657.78;2087517;28;20490;-68
2023/10/27 03:08:21;;;;;;;;;;;;;;;20.05;66.09;96662.34;2081396;28;19929;-68
2023/10/27 03:09:22;;;;;;;;;;;;;;;20.04;66.20;96650.78;2079996;28;19928;-68
2023/10/27 03:10:25;;;;;;;;;;;;;;;20.03;66.14;96649.19;2084297;28;20446;-68
2023/10/27 03:11:26;;;;;;;;;;;;;;;20.05;66.34;96640.81;2083734;28;19926;-67
2023/10/27 03:12:27;;;;;;;;;;;;;;;20.04;66.29;96645.41;2081035;28;19933;-68
2023/10/27 03:13:28;;;;;;;;;;;;;;;20.03;66.06;96633.03;2077762;28;19925;-67
2023/10/27 03:14:30;;;;;;;;;;;;;;;20.05;66.26;96635.44;2080964;28;19925;-67
2023/10/27 03:15:30;;;;;;;;;;;;;;;20.05;66.05;96648.91;2086640;28;19935;-68
2023/10/27 03:16:32;;;;;;;;;;;;;;;20.05;66.21;96647.00;2083922;28;20015;-68
2023/10/27 03:17:33;;;;;;;;;;;;;;;20.04;66.29;96640.03;2085921;28;19928;-68
2023/10/27 03:18:35;;;;;;;;;;;;;;;20.05;66.07;96647.00;2087383;28;19960;-68
2023/10/27 03:19:35;;;;;;;;;;;;;;;20.05;66.23;96644.31;2086407;28;19925;-68
2023/10/27 03:20:37;;;;;;;;;;;;;;;20.05;66.09;96638.13;2082404;28;19932;-68
2023/10/27 03:21:38;;;;;;;;;;;;;;;20.06;66.22;96631.69;2087479;28;19931;-68
2023/10/27 03:22:40;;;;;;;;;;;;;;;20.05;66.43;96613.91;2087844;28;20015;-68
2023/10/27 03:23:41;;;;;;;;;;;;;;;20.05;66.32;96608.53;2088633;28;19969;-68
2023/10/27 03:24:43;;;;;;;;;;;;;;;20.05;66.08;96609.34;2089462;28;20460;-67
2023/10/27 03:25:45;;;;;;;;;;;;;;;20.04;66.09;96615.81;2082213;28;19925;-68
2023/10/27 03:26:45;;;;;;;;;;;;;;;20.06;66.41;96620.94;2086153;28;19925;-68
2023/10/27 03:27:47;;;;;;;;;;;;;;;20.06;66.29;96612.84;2085610;28;19928;-67
2023/10/27 03:28:48;;;;;;;;;;;;;;;20.05;66.12;96600.47;2082545;28;19929;-68
2023/10/27 03:29:48;;;;;;;;;;;;;;;20.05;66.26;96600.47;2086381;28;19939;-68
2023/10/27 03:30:50;;;;;;;;;;;;;;;20.05;66.47;96595.06;2079377;27;19943;-68
2023/10/27 03:31:51;;;;;;;;;;;;;;;20.06;66.21;96588.63;2084022;28;19924;-67
2023/10/27 03:32:53;;;;;;;;;;;;;;;20.06;66.46;96604.78;2087295;28;19971;-68
2023/10/27 03:33:53;;;;;;;;;;;;;;;20.05;66.07;96597.75;2089412;28;19939;-68
2023/10/27 03:34:55;;;;;;;;;;;;;;;20.05;66.12;96603.94;2087865;28;20415;-68
2023/10/27 03:35:55;;;;;;;;;;;;;;;20.06;66.05;96599.41;2078986;28;19936;-67
2023/10/27 03:36:57;;;;;;;;;;;;;;;20.07;66.27;96606.41;2085045;28;20600;-67
2023/10/27 03:37:59;;;;;;;;;;;;;;;20.06;66.08;96600.22;2083879;28;19933;-68
2023/10/27 03:39:00;;;;;;;;;;;;;;;20.06;66.07;96602.91;2087612;28;20965;-67
2023/10/27 03:40:04;;;;;;;;;;;;;;;20.08;66.34;96599.94;2080073;28;19939;-68
2023/10/27 03:41:06;;;;;;;;;;;;;;;20.08;66.22;96591.84;2085949;28;19978;-66
2023/10/27 03:42:08;;;;;;;;;;;;;;;20.06;66.35;96594.81;2085848;28;20036;-67
2023/10/27 03:43:09;;;;;;;;;;;;;;;20.06;66.45;96602.09;2091160;28;19978;-67
2023/10/27 03:44:09;;;;;;;;;;;;;;;20.06;66.11;96600.22;2085927;28;20386;-67
2023/10/27 03:45:11;;;;;;;;;;;;;;;20.07;66.08;96598.31;2085613;28;19932;-68
2023/10/27 03:46:12;;;;;;;;;;;;;;;20.07;66.20;96598.31;2089286;28;19981;-68
2023/10/27 03:47:15;;;;;;;;;;;;;;;20.07;66.17;96609.88;2086762;28;20383;-68
2023/10/27 03:48:15;;;;;;;;;;;;;;;20.08;66.18;96608.00;2087246;28;19931;-67
2023/10/27 03:49:17;;;;;;;;;;;;;;;20.06;66.30;96605.59;2088739;28;19967;-68
2023/10/27 03:50:17;;;;;;;;;;;;;;;20.06;66.14;96594.81;2080713;28;19928;-68
2023/10/27 03:51:18;;;;;;;;;;;;;;;20.06;66.35;96594.03;2084066;28;19965;-67
2023/10/27 03:52:19;;;;;;;;;;;;;;;20.07;66.11;96587.56;2087660;28;19935;-67
2023/10/27 03:53:20;;;;;;;;;;;;;;;20.07;65.94;96572.22;2086300;28;19928;-68
2023/10/27 03:54:21;;;;;;;;;;;;;;;20.06;66.38;96567.91;2086300;28;19931;-68
2023/10/27 03:55:22;;;;;;;;;;;;;;;20.07;66.14;96582.19;2084083;28;19925;-68
2023/10/27 03:56:25;;;;;;;;;;;;;;;20.05;66.50;96577.03;2082849;28;19939;-67
2023/10/27 03:57:25;;;;;;;;;;;;;;;20.07;66.26;96574.09;2087282;28;20388;-67
2023/10/27 03:58:26;;;;;;;;;;;;;;;20.09;66.10;96588.13;2089086;28;19932;-67
2023/10/27 03:59:28;;;;;;;;;;;;;;;20.09;66.44;96582.72;2088830;28;19925;-67
2023/10/27 04:00:29;;;;;;;;;;;;;;;20.07;66.21;96596.44;2087322;28;19956;-67
2023/10/27 04:01:31;;;;;;;;;;;;;;;20.08;66.30;96592.66;2085924;28;19935;-68
2023/10/27 04:02:32;;;;;;;;;;;;;;;20.08;66.31;96599.94;2083163;28;19936;-67
2023/10/27 04:03:33;;;;;;;;;;;;;;;20.07;66.20;96596.44;2089350;28;19956;-68
2023/10/27 04:04:34;;;;;;;;;;;;;;;20.06;66.27;96599.41;2088732;28;19936;-67
2023/10/27 04:05:35;;;;;;;;;;;;;;;20.06;66.40;96600.22;2085934;28;20097;-68
2023/10/27 04:06:37;;;;;;;;;;;;;;;20.06;66.24;96599.41;2088591;28;20300;-67
2023/10/27 04:07:38;;;;;;;;;;;;;;;20.06;66.25;96597.50;2086400;28;20300;-68
2023/10/27 04:08:40;;;;;;;;;;;;;;;20.07;66.50;96607.19;2091138;28;19933;-68
2023/10/27 04:09:41;;;;;;;;;;;;;;;20.08;66.60;96599.94;2087870;28;19935;-67
2023/10/27 04:10:42;;;;;;;;;;;;;;;20.10;66.35;96603.19;2089106;28;19932;-68
2023/10/27 04:11:45;;;;;;;;;;;;;;;20.08;66.25;96600.72;2088350;28;20458;-67
2023/10/27 04:12:46;;;;;;;;;;;;;;;20.09;66.07;96598.88;2086376;28;19932;-67
2023/10/27 04:13:48;;;;;;;;;;;;;;;20.10;66.30;96592.41;2079809;28;19960;-68
2023/10/27 04:14:48;;;;;;;;;;;;;;;20.07;66.21;96584.88;2084533;28;19932;-68
2023/10/27 04:15:51;;;;;;;;;;;;;;;20.06;66.49;96594.03;2081402;28;20382;-68
2023/10/27 04:16:51;;;;;;;;;;;;;;;20.07;66.39;96603.69;2083860;28;20882;-67
2023/10/27 04:17:53;;;;;;;;;;;;;;;20.08;66.17;96613.38;2083504;28;19955;-67
2023/10/27 04:18:54;;;;;;;;;;;;;;;20.08;66.31;96626.84;2085324;28;19963;-68
2023/10/27 04:19:55;;;;;;;;;;;;;;;20.10;66.41;96624.72;2088677;28;19932;-68
2023/10/27 04:20:56;;;;;;;;;;;;;;;20.10;66.32;96632.78;2084970;28;19928;-68
2023/10/27 04:21:57;;;;;;;;;;;;;;;20.08;66.59;96634.91;2084064;28;19933;-68
2023/10/27 04:22:58;;;;;;;;;;;;;;;20.09;66.49;96636.56;2086437;28;20062;-68
2023/10/27 04:24:00;;;;;;;;;;;;;;;20.09;66.32;96652.69;2084296;28;19943;-67
2023/10/27 04:25:01;;;;;;;;;;;;;;;20.11;66.63;96655.91;2085813;28;19943;-67
2023/10/27 04:26:01;;;;;;;;;;;;;;;20.09;66.27;96663.47;2086729;28;19935;-68
2023/10/27 04:27:04;;;;;;;;;;;;;;;20.08;66.28;96665.31;2086960;28;19958;-68
2023/10/27 04:28:06;;;;;;;;;;;;;;;20.08;66.27;96670.69;2088150;28;20303;-67
2023/10/27 04:29:07;;;;;;;;;;;;;;;20.08;66.63;96672.59;2087064;28;19931;-68
2023/10/27 04:30:11;;;;;;;;;;;;;;;20.07;66.62;96679.84;2085076;28;19936;-67
2023/10/27 04:31:12;;;;;;;;;;;;;;;20.09;66.63;96679.63;2087621;28;19986;-68
2023/10/27 04:32:15;;;;;;;;;;;;;;;20.08;66.53;96681.47;2086893;28;19928;-68
2023/10/27 04:33:17;;;;;;;;;;;;;;;20.09;66.45;96682.31;2082197;28;20131;-68
2023/10/27 04:34:18;;;;;;;;;;;;;;;20.07;66.48;96663.72;2082781;28;19939;-68
2023/10/27 04:35:19;;;;;;;;;;;;;;;20.07;66.57;96654.84;2087142;28;19999;-68
2023/10/27 04:36:20;;;;;;;;;;;;;;;20.07;66.37;96654.84;2087253;28;19928;-68
2023/10/27 04:37:22;;;;;;;;;;;;;;;20.07;66.33;96652.94;2081301;28;19931;-68
2023/10/27 04:38:22;;;;;;;;;;;;;;;20.08;66.41;96641.09;2087977;28;19924;-67
2023/10/27 04:39:23;;;;;;;;;;;;;;;20.09;66.64;96620.41;2087537;28;19933;-68
2023/10/27 04:40:25;;;;;;;;;;;;;;;20.09;66.24;96590.81;2087280;28;19940;-68
2023/10/27 04:41:27;;;;;;;;;;;;;;;20.07;66.59;96617.97;2088507;28;20011;-68
2023/10/27 04:42:31;;;;;;;;;;;;;;;20.08;66.31;96621.47;2088025;28;19964;-67
2023/10/27 04:43:32;;;;;;;;;;;;;;;20.08;66.52;96635.72;2088480;28;19932;-68
2023/10/27 04:44:33;;;;;;;;;;;;;;;20.10;66.66;96640.84;2095030;22;19960;-68
2023/10/27 04:45:34;;;;;;;;;;;;;;;20.08;66.37;96648.38;2090082;28;19933;-68
2023/10/27 04:46:36;;;;;;;;;;;;;;;20.08;66.75;96646.47;2089305;28;19968;-68
2023/10/27 04:47:36;;;;;;;;;;;;;;;20.08;66.41;96651.06;2087776;28;19935;-68
2023/10/27 04:48:38;;;;;;;;;;;;;;;20.08;66.47;96651.88;2088945;28;20019;-68
2023/10/27 04:49:38;;;;;;;;;;;;;;;20.08;66.38;96657.25;2090451;28;19960;-67
2023/10/27 04:50:41;;;;;;;;;;;;;;;20.09;66.75;96663.47;2087930;28;20509;-68
2023/10/27 04:51:42;;;;;;;;;;;;;;;20.12;66.34;96672.91;2087152;28;20007;-68
2023/10/27 04:52:43;;;;;;;;;;;;;;;20.12;66.43;96672.91;2089038;28;20003;-67
2023/10/27 04:53:44;;;;;;;;;;;;;;;20.10;66.35;96673.16;2088683;28;19932;-68
2023/10/27 04:54:44;;;;;;;;;;;;;;;20.11;66.58;96665.88;2087039;28;19956;-68
2023/10/27 04:55:46;;;;;;;;;;;;;;;20.12;66.34;96673.72;2089576;28;20039;-69
2023/10/27 04:56:47;;;;;;;;;;;;;;;20.12;66.37;96679.09;2081299;28;19932;-68
2023/10/27 04:57:50;;;;;;;;;;;;;;;20.11;66.56;96669.38;2090012;28;19975;-68
2023/10/27 04:58:50;;;;;;;;;;;;;;;20.11;66.37;96669.38;2087778;28;19936;-68
2023/10/27 04:59:51;;;;;;;;;;;;;;;20.10;66.62;96667.78;2090875;28;19928;-68
2023/10/27 05:00:52;;;;;;;;;;;;;;;20.08;66.51;96664.53;2089430;28;20049;-68
2023/10/27 05:01:53;;;;;;;;;;;;;;;20.09;66.60;96668.84;2090037;28;19925;-68
2023/10/27 05:02:55;;;;;;;;;;;;;;;20.09;66.34;96663.47;2081792;28;19987;-68
2023/10/27 05:03:56;;;;;;;;;;;;;;;20.08;66.55;96664.53;2089306;28;20034;-67
2023/10/27 05:04:56;;;;;;;;;;;;;;;20.09;66.46;96671.53;2090354;28;20306;-68
2023/10/27 05:06:06;;;;;;;;;;;;;;;20.11;66.31;96665.88;2082063;28;21156;-67
2023/10/27 05:07:07;;;;;;;;;;;;;;;20.09;66.60;96660.78;2087242;28;19940;-68
2023/10/27 05:08:08;;;;;;;;;;;;;;;20.10;66.47;96662.38;2086132;28;20397;-68
2023/10/27 05:09:10;;;;;;;;;;;;;;;20.10;66.38;96662.38;2089994;28;19940;-67
2023/10/27 05:10:12;;;;;;;;;;;;;;;20.10;66.71;96665.06;2088740;28;19935;-67
2023/10/27 05:11:13;;;;;;;;;;;;;;;20.12;66.22;96662.13;2086220;28;20202;-67
2023/10/27 05:12:14;;;;;;;;;;;;;;;20.11;66.32;96650.53;2090997;28;20415;-68
2023/10/27 05:13:16;;;;;;;;;;;;;;;20.11;66.34;96661.31;2092088;28;20407;-67
2023/10/27 05:14:18;;;;;;;;;;;;;;;20.10;66.36;96654.31;2091244;28;20438;-68
2023/10/27 05:15:19;;;;;;;;;;;;;;;20.11;66.53;96649.72;2086547;28;20311;-68
2023/10/27 05:16:19;;;;;;;;;;;;;;;20.11;66.48;96655.13;2091254;28;19928;-68
2023/10/27 05:17:21;;;;;;;;;;;;;;;20.08;66.76;96649.19;2091377;28;19935;-68
2023/10/27 05:18:22;;;;;;;;;;;;;;;20.09;66.34;96644.63;2088229;28;20303;-68
2023/10/27 05:19:24;;;;;;;;;;;;;;;20.11;66.27;96655.13;2091126;28;20019;-67